• Join FlightAware (Why Join?)
  • Login
  • US Flag 
01:21AM EDT


 

Airport Tracker/Info


-or-


 

Live Flight TrackerFlight Track Log ✈ AAL2007 ✈ 30-Apr-2013 ✈ KORD - KAUS

Flight Track Log - Related Links

Times and Time Zones

All times are in EDT time to prevent confusion due to time zone crossing. See the AAL2007 flight status page for this flight to view local times or setup timezone preferences in your user account.

Time Position Orientation Groundspeed Altitude Reporting Facility
EDT Latitude Longitude Course Direction KTS MPH feet Rate Location/Type
07:03PM 41.9500 -87.9667 194° South 172 198 3,100  Level Chicago TRACON
07:04PM 41.7032 -88.1854 201° Southwest  Level Estimated
07:04PM 41.8833 -88.0000 200° South 236 272 5,700  Level Chicago TRACON
07:05PM 41.6102 -88.2777 197° South  Level Estimated
07:05PM 41.8192 -87.9994 180° South 249 287 8,900  Level Chicago Center
07:06PM 41.5172 -88.3698 194° South  Level Estimated
07:06PM 41.7494 -88.0250 195° South 260 299 11,800  Level Chicago Center
07:07PM 41.4241 -88.4617 207° Southwest  Level Estimated
07:07PM 41.6683 -88.0622 199° South 310 357 13,200  Level Chicago Center
07:08PM 41.3349 -88.5493 194° South  Level Estimated
07:08PM 41.5722 -88.1056 199° South 364 419 15,000  Level Chicago Center
07:09PM 41.4508 -88.1614 199° South 396 456 18,200 2,460 Climbing Chicago Center
07:10PM 41.3442 -88.2086 198° South 418 481 20,100 1,800 Climbing Chicago Center
07:11PM 41.2300 -88.2594 199° South 437 503 22,000 2,100 Climbing Chicago Center
07:12PM 41.0894 -88.3236 199° South 447 514 24,500 2,220 Climbing Chicago Center
07:13PM 40.9706 -88.3769 199° South 454 522 26,600 1,860 Climbing Chicago Center
07:14PM 40.8506 -88.4306 199° South 456 525 28,400 1,620 Climbing Chicago Center
07:15PM 40.7453 -88.5150 211° Southwest 458 527 30,000 1,500 Climbing Chicago Center
07:16PM 40.6536 -88.6269 223° Southwest 452 520 31,500 960 Climbing Chicago Center
07:17PM 40.5375 -88.7486 219° Southwest 449 517 32,000 240 Climbing Chicago Center
07:18PM 40.4400 -88.8514 219° Southwest 443 510 32,000  Level Chicago Center
07:19PM 40.3431 -88.9533 219° Southwest 444 511 32,000  Level Chicago Center
07:20PM 40.2464 -89.0547 219° Southwest 443 510 32,000  Level Chicago Center
07:21PM 40.1483 -89.1592 219° Southwest 445 512 32,000  Level Chicago Center
07:22PM 40.0506 -89.2592 218° Southwest 445 512 32,000  Level Kansas City Center
07:23PM 39.9528 -89.3614 219° Southwest 447 514 32,000  Level Kansas City Center
07:24PM 39.8567 -89.4628 219° Southwest 445 512 32,000  Level Kansas City Center
07:25PM 39.7594 -89.5639 219° Southwest 446 513 32,000  Level Kansas City Center
07:26PM 39.6533 -89.6731 218° Southwest 444 511 32,000  Level Kansas City Center
07:27PM 39.5572 -89.7739 219° Southwest 444 511 32,000  Level Kansas City Center
07:28PM 39.4603 -89.8722 218° Southwest 444 511 32,000  Level Kansas City Center
07:29PM 39.3636 -89.9717 219° Southwest 444 511 32,000  Level Kansas City Center
07:30PM 39.2672 -90.0706 218° Southwest 444 511 32,000  Level Kansas City Center
07:31PM 39.1514 -90.1883 218° Southwest 444 511 32,000  Level Kansas City Center
07:32PM 39.0558 -90.2869 219° Southwest 444 511 32,000  Level Kansas City Center
07:33PM 38.9589 -90.3853 218° Southwest 446 513 32,000  Level Kansas City Center
07:34PM 38.8583 -90.4886 219° Southwest 442 509 32,000  Level Kansas City Center
07:35PM 38.7628 -90.5936 221° Southwest 446 513 32,000  Level Kansas City Center
07:37PM 38.6625 -90.7117 223° Southwest 447 514 32,000  Level Kansas City Center
07:38PM 38.5703 -90.8181 222° Southwest 450 518 32,000  Level Kansas City Center
07:39PM 38.4778 -90.9239 222° Southwest 449 517 32,000  Level Kansas City Center
07:40PM 38.3831 -91.0311 222° Southwest 456 525 32,000  Level Kansas City Center
07:41PM 38.2711 -91.1589 222° Southwest 453 521 32,000  Level Kansas City Center
07:42PM 38.1986 -91.2903 235° Southwest 449 517 32,000  Level Kansas City Center
07:43PM 38.1378 -91.4236 240° Southwest 454 522 32,000  Level Kansas City Center
07:44PM 38.0725 -91.5669 240° Southwest 461 531 32,000  Level Kansas City Center
07:45PM 37.9986 -91.7358 241° Southwest 456 525 32,000  Level Kansas City Center
07:46PM 37.9050 -91.8472 223° Southwest 459 528 32,000  Level Kansas City Center
07:47PM 37.8031 -91.9436 217° Southwest 451 519 32,000  Level Kansas City Center
07:48PM 37.7008 -92.0444 218° Southwest 454 522 32,000  Level Kansas City Center
07:49PM 37.5983 -92.1475 219° Southwest 459 528 32,000  Level Kansas City Center
07:50PM 37.4953 -92.2511 219° Southwest 466 536 32,000  Level Kansas City Center
07:51PM 37.3936 -92.3533 219° Southwest 465 535 32,000  Level Kansas City Center
07:52PM 37.2925 -92.4506 217° Southwest 459 528 32,000  Level Kansas City Center
07:53PM 37.1906 -92.5506 218° Southwest 459 528 32,000  Level Kansas City Center
07:54PM 37.0717 -92.6661 218° Southwest 452 520 32,000  Level Kansas City Center
07:55PM 36.9722 -92.7658 219° Southwest 453 521 32,000  Level Kansas City Center
07:56PM 36.8714 -92.8639 218° Southwest 455 524 32,000  Level Kansas City Center
07:57PM 36.7719 -92.9606 218° Southwest 454 522 32,000  Level Kansas City Center
07:58PM 36.6722 -93.0567 218° Southwest 453 521 32,000  Level Kansas City Center
07:59PM 36.5650 -93.1625 218° Southwest 462 532 32,000  Level Memphis Center
08:00PM 36.4667 -93.2600 219° Southwest 462 532 32,000  Level Memphis Center
08:01PM 36.3625 -93.3542 216° Southwest 462 532 32,000  Level Memphis Center
08:02PM 36.2642 -93.4508 218° Southwest 462 532 32,000  Level Memphis Center
08:03PM 36.1639 -93.5447 217° Southwest 462 532 32,000  Level Memphis Center
08:04PM 36.0633 -93.6383 217° Southwest 462 532 32,000  Level Memphis Center
08:05PM 35.9692 -93.7297 218° Southwest 452 520 32,000  Level Memphis Center
08:06PM 35.8581 -93.8328 217° Southwest 452 520 32,000  Level Memphis Center
08:07PM 35.7614 -93.9258 218° Southwest 452 520 32,000  Level Memphis Center
08:08PM 35.6631 -94.0136 216° Southwest 452 520 32,000  Level Memphis Center
08:09PM 35.5644 -94.1061 217° Southwest 452 520 32,000  Level Memphis Center
08:10PM 35.4678 -94.1961 217° Southwest 452 520 32,000  Level Memphis Center
08:11PM 35.3689 -94.2858 217° Southwest 452 520 32,000  Level Memphis Center
08:12PM 35.2622 -94.3672 212° Southwest 452 520 32,000  Level Memphis Center
08:13PM 35.1594 -94.4461 212° Southwest 452 520 32,000  Level Memphis Center
08:14PM 35.0544 -94.5272 212° Southwest 446 513 32,000  Level Memphis Center
08:15PM 34.9331 -94.6250 213° Southwest 428 493 32,000  Level Fort Worth Center
08:16PM 34.8306 -94.7044 212° Southwest 435 501 32,000  Level Fort Worth Center
08:17PM 34.7258 -94.7808 211° Southwest 447 514 32,000  Level Fort Worth Center
08:18PM 34.6169 -94.8625 212° Southwest 457 526 32,000  Level Fort Worth Center
08:19PM 34.5122 -94.9411 212° Southwest 457 526 32,000  Level Fort Worth Center
08:20PM 34.4072 -95.0197 212° Southwest 452 520 32,000  Level Fort Worth Center
08:21PM 34.2981 -95.1008 212° Southwest 452 520 32,000  Level Fort Worth Center
08:22PM 34.1911 -95.1789 211° Southwest 452 520 32,000  Level Fort Worth Center
08:23PM 34.0839 -95.2594 212° Southwest 452 520 32,000  Level Fort Worth Center
08:24PM 33.9767 -95.3372 211° Southwest 452 520 32,000  Level Fort Worth Center
08:25PM 33.8694 -95.4172 212° Southwest 452 520 32,000  Level Fort Worth Center
08:26PM 33.7603 -95.4972 211° Southwest 457 526 32,000  Level Fort Worth Center
08:27PM 33.6550 -95.5769 212° Southwest 457 526 32,000  Level Fort Worth Center
08:28PM 33.5475 -95.6514 210° Southwest 452 520 32,000  Level Fort Worth Center
08:29PM 33.4400 -95.7306 212° Southwest 452 520 32,000  Level Fort Worth Center
08:30PM 33.3325 -95.8072 211° Southwest 452 520 32,000  Level Fort Worth Center
08:31PM 33.2269 -95.8861 212° Southwest 452 520 32,000  Level Fort Worth Center
08:32PM 33.1214 -95.9600 210° Southwest 446 513 32,000  Level Fort Worth Center
08:33PM 33.0139 -96.0386 212° Southwest 451 519 32,000  Level Fort Worth Center
08:34PM 32.9061 -96.1169 211° Southwest 445 512 32,000  Level Fort Worth Center
08:35PM 32.8003 -96.1925 211° Southwest 450 518 32,000  Level Fort Worth Center
08:36PM 32.7028 -96.2606 210° Southwest 450 518 32,000  Level Fort Worth Center
08:37PM 32.5867 -96.3433 211° Southwest 450 518 32,000  Level Fort Worth Center
08:38PM 32.4911 -96.4108 211° Southwest 450 518 32,000 -420 Level Fort Worth Center
08:39PM 32.3750 -96.4958 212° Southwest 456 525 31,200 -1,200 Descending Fort Worth Center
08:40PM 32.2772 -96.5633 210° Southwest 451 519 29,600 -1,740 Descending Fort Worth Center
08:41PM 32.1714 -96.6428 212° Southwest 451 519 27,800 -1,800 Descending Fort Worth Center
08:42PM 32.0547 -96.7197 209° Southwest 463 533 26,000 -1,800 Descending Fort Worth Center
08:43PM 31.9467 -96.7964 211° Southwest 463 533 24,200 -1,380 Descending Fort Worth Center
08:45PM 31.7244 -96.9497 210° Southwest 457 526 22,000 -780 Descending Houston Center
08:46PM 31.6147 -97.0253 210° Southwest 454 522 22,000  Level Houston Center
08:47PM 31.5014 -97.0958 208° Southwest 456 525 22,000 -1,080 Level Houston Center
08:48PM 31.3869 -97.1378 197° South 430 495 19,800 -2,400 Descending Houston Center
08:49PM 31.2778 -97.1814 199° South 412 474 17,100 -2,640 Descending Houston Center
08:51PM 31.1708 -97.2228 198° South 402 463 14,500 -2,040 Descending Houston Center
08:52PM 31.0678 -97.2639 199° South 393 452 13,000 -840 Descending Houston Center
08:53PM 30.9472 -97.3111 199° South 392 451 12,900  Descending Houston Center
08:54PM 30.8464 -97.3503 198° South 397 457 13,000 -480 Climbing Houston Center
08:55PM 30.7528 -97.3931 201° Southwest 364 419 12,000 -1,080 Descending Houston Center
08:56PM 30.6742 -97.4469 211° Southwest 333 383 10,800 -1,440 Descending Houston Center
08:57PM 30.5997 -97.5006 212° Southwest 316 364 9,100 -1,680 Descending Houston Center
08:58PM 30.5300 -97.5522 213° Southwest 302 348 7,400 -1,800 Descending Houston Center
08:59PM 30.4683 -97.6014 215° Southwest 274 315 5,500 -1,500 Descending Houston Center
09:00PM 30.4269 -97.6575 229° Southwest 234 269 4,400 -1,140 Descending Houston Center